createdAt,value
2023-03-26T00:00:48.689Z,100820.69
2023-03-26T00:03:17.378Z,100821.84
2023-03-26T00:05:46.564Z,100831.91
2023-03-26T00:08:13.277Z,100828.41
2023-03-26T00:10:41.653Z,100825.25
2023-03-26T00:13:09.191Z,100823.69
2023-03-26T00:15:37.084Z,100823.69
2023-03-26T00:18:04.141Z,100819.03
2023-03-26T00:20:32.884Z,100817.09
2023-03-26T00:23:01.633Z,100819.78
2023-03-26T00:25:29.704Z,100820.16
2023-03-26T00:27:56.337Z,100819.72
2023-03-26T00:30:23.220Z,100809.66
2023-03-26T00:32:53.492Z,100815.47
2023-03-26T00:35:20.949Z,100815.47
2023-03-26T00:37:47.920Z,100806.56
2023-03-26T00:40:14.652Z,100805.00
2023-03-26T00:42:42.568Z,100801.84
2023-03-26T00:45:09.586Z,100797.59
2023-03-26T00:47:36.576Z,100788.28
2023-03-26T00:50:04.339Z,100785.16
2023-03-26T00:52:31.871Z,100778.91
2023-03-26T00:54:58.524Z,100780.84
2023-03-26T00:57:42.722Z,100784.66
2023-03-26T01:00:15.297Z,100774.19
2023-03-26T01:02:45.228Z,100783.13
2023-03-26T01:05:34.766Z,100776.47
2023-03-26T01:08:24.128Z,100774.94
2023-03-26T01:10:52.178Z,100775.28
2023-03-26T01:13:23.001Z,100775.25
2023-03-26T01:15:51.360Z,100761.72
2023-03-26T01:18:22.034Z,100760.13
2023-03-26T01:20:51.168Z,100765.53
2023-03-26T01:23:24.670Z,100750.47
2023-03-26T01:26:12.247Z,100742.69
2023-03-26T01:28:41.392Z,100733.44
2023-03-26T01:31:25.490Z,100729.94
2023-03-26T01:34:03.971Z,100735.34
2023-03-26T01:36:46.858Z,100733.44
2023-03-26T01:39:25.345Z,100727.28
2023-03-26T01:41:57.135Z,100725.72
2023-03-26T01:44:31.441Z,100726.50
2023-03-26T01:49:29.209Z,100713.75
2023-03-26T01:51:58.089Z,100719.56
2023-03-26T01:54:27.406Z,100704.47
2023-03-26T01:57:17.959Z,100699.84
2023-03-26T02:00:11.391Z,100697.13
2023-03-26T02:02:55.022Z,100695.56
2023-03-26T02:05:29.152Z,100690.50
2023-03-26T02:08:21.013Z,100678.91
2023-03-26T02:10:52.975Z,100682.38
2023-03-26T02:13:20.182Z,100671.16
2023-03-26T02:16:01.775Z,100670.34
2023-03-26T02:18:36.499Z,100670.34
2023-03-26T02:21:13.935Z,100665.34
2023-03-26T02:23:42.548Z,100664.53
2023-03-26T02:26:11.254Z,100661.81
2023-03-26T02:28:38.431Z,100669.16
2023-03-26T02:31:06.658Z,100656.03
2023-03-26T02:33:33.298Z,100652.91
2023-03-26T02:36:02.136Z,100651.31
2023-03-26T02:38:30.477Z,100647.47
2023-03-26T02:40:57.685Z,100645.19
2023-03-26T02:43:24.371Z,100649.81
2023-03-26T02:45:51.376Z,100641.25
2023-03-26T02:48:18.463Z,100641.69
2023-03-26T02:50:46.066Z,100644.03
2023-03-26T02:53:13.712Z,100642.88
2023-03-26T02:55:40.567Z,100647.50
2023-03-26T02:58:08.334Z,100636.69
2023-03-26T03:00:35.368Z,100633.63
2023-03-26T03:03:04.061Z,100633.25
2023-03-26T03:05:32.371Z,100634.81
2023-03-26T03:07:59.736Z,100632.94
2023-03-26T03:10:28.598Z,100627.50
2023-03-26T03:12:55.345Z,100622.09
2023-03-26T03:15:21.931Z,100628.69
2023-03-26T03:17:48.618Z,100615.53
2023-03-26T03:20:16.711Z,100629.88
2023-03-26T03:22:43.682Z,100619.81
2023-03-26T03:25:14.361Z,100605.88
2023-03-26T03:27:42.941Z,100612.50
2023-03-26T03:30:13.443Z,100610.56
2023-03-26T03:32:40.252Z,100609.41
2023-03-26T03:35:07.535Z,100605.56
2023-03-26T03:37:34.440Z,100597.44
2023-03-26T03:40:01.092Z,100604.41
2023-03-26T03:42:27.779Z,100596.69
2023-03-26T03:44:54.491Z,100595.16
2023-03-26T03:47:23.093Z,100589.75
2023-03-26T03:49:50.290Z,100597.56
2023-03-26T03:52:19.246Z,100598.78
2023-03-26T03:54:45.848Z,100603.09
2023-03-26T03:57:12.534Z,100602.00
2023-03-26T03:59:39.134Z,100600.81
2023-03-26T04:02:21.366Z,100596.22
2023-03-26T04:04:50.366Z,100590.78
2023-03-26T04:07:17.051Z,100597.41
2023-03-26T04:09:43.644Z,100591.97
2023-03-26T04:12:10.548Z,100587.38
2023-03-26T04:14:37.123Z,100581.16
2023-03-26T04:17:05.405Z,100576.53
2023-03-26T04:19:32.070Z,100579.25
2023-03-26T04:22:02.809Z,100566.47
2023-03-26T04:24:29.982Z,100572.66
2023-03-26T04:27:01.018Z,100561.47
2023-03-26T04:29:30.727Z,100566.09
2023-03-26T04:31:58.930Z,100558.38
2023-03-26T04:34:25.890Z,100551.03
2023-03-26T04:36:54.713Z,100551.81
2023-03-26T04:39:22.835Z,100546.41
2023-03-26T04:41:49.408Z,100542.53
2023-03-26T04:44:17.205Z,100533.97
2023-03-26T04:46:45.278Z,100529.38
2023-03-26T04:49:12.075Z,100522.78
2023-03-26T04:51:41.909Z,100526.25
2023-03-26T04:54:12.723Z,100509.22
2023-03-26T04:56:47.892Z,100513.50
2023-03-26T04:59:18.991Z,100513.88
2023-03-26T05:01:46.683Z,100500.34
2023-03-26T05:04:13.718Z,100504.97
2023-03-26T05:06:41.871Z,100495.28
2023-03-26T05:09:10.640Z,100498.34
2023-03-26T05:11:37.261Z,100494.09
2023-03-26T05:14:04.008Z,100497.97
2023-03-26T05:16:31.855Z,100497.97
2023-03-26T05:18:58.629Z,100484.41
2023-03-26T05:21:25.442Z,100490.63
2023-03-26T05:23:52.138Z,100490.97
2023-03-26T05:26:19.194Z,100480.13
2023-03-26T05:28:45.944Z,100478.19
2023-03-26T05:31:13.938Z,100479.38
2023-03-26T05:33:40.604Z,100472.06
2023-03-26T05:36:13.421Z,100468.59
2023-03-26T05:38:40.223Z,100469.34
2023-03-26T05:41:08.940Z,100457.69
2023-03-26T05:43:36.307Z,100462.00
2023-03-26T05:46:03.765Z,100463.94
2023-03-26T05:48:30.829Z,100460.81
2023-03-26T05:50:58.527Z,100452.31
2023-03-26T05:53:27.210Z,100455.03
2023-03-26T05:55:58.117Z,100456.97
2023-03-26T05:58:27.579Z,100453.91
2023-03-26T06:01:08.522Z,100454.66
2023-03-26T06:03:39.272Z,100451.97
2023-03-26T06:06:08.846Z,100454.31
2023-03-26T06:08:35.590Z,100443.09
2023-03-26T06:11:05.594Z,100440.00
2023-03-26T06:13:32.184Z,100432.69
2023-03-26T06:15:58.924Z,100424.16
2023-03-26T06:18:26.696Z,100420.66
2023-03-26T06:20:53.810Z,100419.53
2023-03-26T06:23:23.315Z,100409.47
2023-03-26T06:25:49.965Z,100416.06
2023-03-26T06:28:16.870Z,100414.88
2023-03-26T06:30:43.625Z,100409.09
2023-03-26T06:33:11.013Z,100411.44
2023-03-26T06:35:37.709Z,100408.34
2023-03-26T06:38:05.357Z,100409.53
2023-03-26T06:40:32.773Z,100403.72
2023-03-26T06:43:09.448Z,100416.13
2023-03-26T06:45:38.335Z,100411.13
2023-03-26T06:48:05.885Z,100404.13
2023-03-26T06:50:33.064Z,100411.13
2023-03-26T06:53:00.375Z,100406.47
2023-03-26T06:55:28.947Z,100406.09
2023-03-26T06:57:57.015Z,100406.09
2023-03-26T07:00:24.361Z,100402.97
2023-03-26T07:02:50.969Z,100402.97
2023-03-26T07:05:17.701Z,100404.94
2023-03-26T07:07:46.723Z,100409.97
2023-03-26T07:10:14.441Z,100404.97
2023-03-26T07:12:42.515Z,100407.28
2023-03-26T07:15:10.496Z,100406.13
2023-03-26T07:17:37.416Z,100402.25
2023-03-26T07:20:06.513Z,100403.06
2023-03-26T07:22:33.397Z,100409.66
2023-03-26T07:25:00.304Z,100397.63
2023-03-26T07:27:36.200Z,100405.00
2023-03-26T07:30:12.160Z,100399.19
2023-03-26T07:33:03.791Z,100404.25
2023-03-26T07:35:41.692Z,100399.22
2023-03-26T07:38:33.084Z,100402.31
2023-03-26T07:41:07.078Z,100395.34
2023-03-26T07:43:53.675Z,100398.47
2023-03-26T07:46:27.790Z,100400.03
2023-03-26T07:48:57.671Z,100400.81
2023-03-26T07:51:24.943Z,100400.78
2023-03-26T07:53:54.143Z,100394.59
2023-03-26T07:56:29.297Z,100391.91
2023-03-26T07:59:12.743Z,100395.81
2023-03-26T08:02:05.350Z,100396.97
2023-03-26T08:04:41.604Z,100395.03
2023-03-26T08:07:16.421Z,100387.31
2023-03-26T08:09:54.353Z,100389.25
2023-03-26T08:13:04.172Z,100385.75
2023-03-26T08:15:38.161Z,100388.88
2023-03-26T08:18:27.633Z,100386.94
2023-03-26T08:21:01.036Z,100388.50
2023-03-26T08:23:36.396Z,100386.56
2023-03-26T08:26:39.897Z,100382.28
2023-03-26T08:29:15.898Z,100387.75
2023-03-26T08:31:45.011Z,100390.06
2023-03-26T08:34:14.598Z,100389.28
2023-03-26T08:36:41.346Z,100384.63
2023-03-26T08:39:09.000Z,100382.28
2023-03-26T08:42:29.172Z,100387.31
2023-03-26T08:45:14.836Z,100381.88
2023-03-26T08:47:48.521Z,100388.84
2023-03-26T08:50:57.935Z,100386.88
2023-03-26T08:53:52.757Z,100386.47
2023-03-26T08:56:53.728Z,100389.19
2023-03-26T09:00:18.264Z,100391.13
2023-03-26T09:03:12.660Z,100390.69
2023-03-26T09:06:13.502Z,100388.78
2023-03-26T09:09:19.140Z,100399.19
2023-03-26T09:12:04.409Z,100387.97
2023-03-26T09:14:54.665Z,100391.44
2023-03-26T09:17:50.049Z,100388.72
2023-03-26T09:20:48.422Z,100394.56
2023-03-26T09:23:33.889Z,100389.88
2023-03-26T09:29:51.262Z,100389.13
2023-03-26T09:32:26.144Z,100388.34
2023-03-26T09:35:02.355Z,100393.41
2023-03-26T09:37:56.374Z,100399.22
2023-03-26T09:40:38.199Z,100389.16
2023-03-26T09:43:29.695Z,100397.25
2023-03-26T09:46:15.029Z,100396.53
2023-03-26T09:49:13.678Z,100398.84
2023-03-26T09:51:50.390Z,100401.50
2023-03-26T09:54:54.988Z,100402.66
2023-03-26T09:57:23.679Z,100407.72
2023-03-26T10:00:00.142Z,100408.88
2023-03-26T10:02:46.288Z,100413.94
2023-03-26T10:05:23.717Z,100410.06
2023-03-26T10:08:21.413Z,100418.16
2023-03-26T10:11:22.717Z,100409.22
2023-03-26T10:14:18.900Z,100419.28
2023-03-26T10:16:59.998Z,100413.88
2023-03-26T10:19:45.689Z,100418.53
2023-03-26T10:22:14.408Z,100414.66
2023-03-26T10:25:01.914Z,100418.91
2023-03-26T10:27:37.661Z,100418.50
2023-03-26T10:30:23.689Z,100431.31
2023-03-26T10:33:01.969Z,100428.19
2023-03-26T10:35:53.764Z,100429.75
2023-03-26T10:39:02.256Z,100436.31
2023-03-26T10:41:32.643Z,100433.97
2023-03-26T10:44:08.855Z,100435.53
2023-03-26T10:46:50.404Z,100442.06
2023-03-26T10:49:32.754Z,100438.09
2023-03-26T10:52:05.010Z,100440.03
2023-03-26T10:55:00.537Z,100447.81
2023-03-26T10:57:38.511Z,100434.22
2023-03-26T11:00:16.072Z,100447.00
2023-03-26T11:02:54.490Z,100450.53
2023-03-26T11:05:32.969Z,100452.00
2023-03-26T11:08:07.179Z,100457.03
2023-03-26T11:10:45.816Z,100461.31
2023-03-26T11:13:25.476Z,100460.16
2023-03-26T11:15:58.910Z,100457.06
2023-03-26T11:18:59.339Z,100460.91
2023-03-26T11:21:44.592Z,100468.63
2023-03-26T11:24:35.131Z,100465.91
2023-03-26T11:27:14.873Z,100472.09
2023-03-26T11:29:51.813Z,100465.97
2023-03-26T11:32:24.720Z,100473.78
2023-03-26T11:35:04.163Z,100484.19
2023-03-26T11:37:41.576Z,100482.19
2023-03-26T11:40:16.514Z,100476.34
2023-03-26T11:42:43.917Z,100484.47
2023-03-26T11:45:20.915Z,100485.22
2023-03-26T11:48:10.280Z,100480.19
2023-03-26T11:50:44.481Z,100486.38
2023-03-26T11:53:14.647Z,100486.41
2023-03-26T11:55:48.021Z,100486.06
2023-03-26T11:58:35.058Z,100494.56
2023-03-26T12:01:05.535Z,100494.47
2023-03-26T12:03:32.291Z,100493.72
2023-03-26T12:05:59.854Z,100498.81
2023-03-26T12:08:34.092Z,100491.84
2023-03-26T12:11:06.547Z,100499.25
2023-03-26T12:13:41.920Z,100498.13
2023-03-26T12:16:14.045Z,100497.72
2023-03-26T12:18:43.908Z,100501.59
2023-03-26T12:21:14.024Z,100498.13
2023-03-26T12:23:56.428Z,100498.13
2023-03-26T12:26:36.921Z,100505.53
2023-03-26T12:29:13.344Z,100504.81
2023-03-26T12:31:57.895Z,100515.31
2023-03-26T12:34:31.771Z,100511.88
2023-03-26T12:37:00.990Z,100517.31
2023-03-26T12:40:09.350Z,100521.59
2023-03-26T12:44:46.258Z,100525.50
2023-03-26T12:45:14.871Z,100522.84
2023-03-26T12:48:01.349Z,100517.50
2023-03-26T12:50:45.645Z,100535.00
2023-03-26T12:53:26.016Z,100535.75
2023-03-26T12:56:01.452Z,100538.47
2023-03-26T12:58:28.563Z,100531.50
2023-03-26T13:01:06.734Z,100540.78
2023-03-26T13:03:41.986Z,100538.88
2023-03-26T13:06:31.326Z,100541.59
2023-03-26T13:09:32.936Z,100544.31
2023-03-26T13:12:18.319Z,100549.38
2023-03-26T13:14:52.048Z,100544.78
2023-03-26T13:17:31.166Z,100554.91
2023-03-26T13:20:07.270Z,100556.44
2023-03-26T13:22:46.217Z,100558.38
2023-03-26T13:25:26.701Z,100559.53
2023-03-26T13:28:17.083Z,100561.88
2023-03-26T13:31:15.271Z,100566.13
2023-03-26T13:34:00.442Z,100563.81
2023-03-26T13:36:51.889Z,100569.66
2023-03-26T13:39:54.773Z,100567.75
2023-03-26T13:42:41.474Z,100578.25
2023-03-26T13:49:26.523Z,100575.16
2023-03-26T13:52:00.206Z,100576.72
2023-03-26T13:54:33.005Z,100581.75
2023-03-26T14:00:34.256Z,100582.06
2023-03-26T14:03:09.918Z,100586.78
2023-03-26T14:06:24.957Z,100587.56
2023-03-26T14:09:23.281Z,100603.44
2023-03-26T14:11:58.107Z,100594.88
2023-03-26T14:14:53.349Z,100611.56
2023-03-26T14:17:28.330Z,100617.00
2023-03-26T14:20:23.786Z,100616.22
2023-03-26T14:23:19.618Z,100622.31
2023-03-26T14:25:53.664Z,100623.84
2023-03-26T14:28:51.465Z,100627.28
2023-03-26T14:31:25.279Z,100632.69
2023-03-26T14:34:00.137Z,100633.75
2023-03-26T14:36:51.008Z,100636.84
2023-03-26T14:42:38.698Z,100649.34
2023-03-26T14:45:21.966Z,100658.63
2023-03-26T14:51:37.342Z,100662.88
2023-03-26T14:54:12.209Z,100676.84
2023-03-26T14:56:43.556Z,100678.25
2023-03-26T14:59:11.253Z,100688.25
2023-03-26T15:01:58.644Z,100694.06
2023-03-26T15:04:43.671Z,100688.25
2023-03-26T15:07:30.227Z,100691.38
2023-03-26T15:10:14.267Z,100699.13
2023-03-26T15:13:04.320Z,100708.00
2023-03-26T15:15:37.548Z,100710.34
2023-03-26T15:18:25.449Z,100710.41
2023-03-26T15:21:01.870Z,100711.22
2023-03-26T15:23:52.065Z,100707.69
2023-03-26T15:26:47.417Z,100719.34
2023-03-26T15:29:25.369Z,100725.09
2023-03-26T15:32:11.950Z,100726.69
2023-03-26T15:34:55.403Z,100726.66
2023-03-26T15:37:43.641Z,100730.53
2023-03-26T15:40:47.466Z,100735.94
2023-03-26T15:43:16.303Z,100745.59
2023-03-26T15:45:50.894Z,100756.03
2023-03-26T15:48:32.342Z,100759.03
2023-03-26T15:51:15.479Z,100758.63
2023-03-26T15:54:00.108Z,100775.28
2023-03-26T15:56:42.084Z,100772.88
2023-03-26T15:59:27.031Z,100783.63
2023-03-26T16:02:10.069Z,100797.44
2023-03-26T16:04:50.693Z,100808.97
2023-03-26T16:07:21.894Z,100808.19
2023-03-26T16:10:00.797Z,100811.97
2023-03-26T16:12:33.141Z,100815.84
2023-03-26T16:15:32.088Z,100825.16
2023-03-26T16:18:10.291Z,100822.81
2023-03-26T16:20:50.964Z,100829.34
2023-03-26T16:23:47.851Z,100838.28
2023-03-26T16:26:22.974Z,100833.53
2023-03-26T16:28:52.865Z,100854.28
2023-03-26T16:31:37.713Z,100856.94
2023-03-26T16:34:07.162Z,100850.38
2023-03-26T16:36:35.374Z,100862.72
2023-03-26T16:39:10.763Z,100857.22
2023-03-26T16:41:50.025Z,100871.88
2023-03-26T16:44:26.326Z,100886.81
2023-03-26T16:46:53.979Z,100892.16
2023-03-26T16:49:28.354Z,100889.81
2023-03-26T16:52:03.604Z,100899.84
2023-03-26T16:54:43.513Z,100904.91
2023-03-26T16:57:37.020Z,100907.97
2023-03-26T17:00:33.166Z,100911.06
2023-03-26T17:03:29.342Z,100928.00
2023-03-26T17:05:57.595Z,100931.81
2023-03-26T17:08:36.556Z,100932.44
2023-03-26T17:11:42.554Z,100940.16
2023-03-26T17:14:26.347Z,100944.56
2023-03-26T17:17:30.665Z,100941.38
2023-03-26T17:20:09.461Z,100957.50
2023-03-26T17:23:00.684Z,100949.00
2023-03-26T17:25:52.030Z,100970.22
2023-03-26T17:31:12.095Z,100976.06
2023-03-26T17:33:39.594Z,100980.19
2023-03-26T17:36:12.620Z,100987.97
2023-03-26T17:38:39.337Z,101003.06
2023-03-26T17:41:08.316Z,101011.19
2023-03-26T17:43:37.022Z,101005.78
2023-03-26T17:46:13.212Z,101013.38
2023-03-26T17:48:47.079Z,101020.28
2023-03-26T17:54:32.954Z,101027.03
2023-03-26T17:57:06.361Z,101026.63
2023-03-26T17:59:34.117Z,101040.91
2023-03-26T18:02:06.619Z,101043.09
2023-03-26T18:04:36.771Z,101044.59
2023-03-26T18:07:09.586Z,101046.53
2023-03-26T18:09:46.876Z,101054.09
2023-03-26T18:12:39.322Z,101067.47
2023-03-26T18:15:32.102Z,101068.78
2023-03-26T18:18:18.041Z,101068.97
2023-03-26T18:20:47.234Z,101078.63
2023-03-26T18:23:24.021Z,101081.34
2023-03-26T18:26:08.397Z,101083.28
2023-03-26T18:28:41.914Z,101094.09
2023-03-26T18:31:17.007Z,101095.91
2023-03-26T18:33:46.680Z,101107.53
2023-03-26T18:36:27.744Z,101104.91
2023-03-26T18:38:58.932Z,101119.19
2023-03-26T18:41:41.824Z,101119.56
2023-03-26T18:44:16.015Z,101123.16
2023-03-26T18:46:44.652Z,101142.06
2023-03-26T18:49:14.707Z,101145.91
2023-03-26T18:51:56.184Z,101152.78
2023-03-26T18:54:25.467Z,101158.53
2023-03-26T18:56:52.882Z,101169.72
2023-03-26T18:59:28.412Z,101180.09
2023-03-26T19:01:57.780Z,101184.50
2023-03-26T19:04:26.746Z,101180.56
2023-03-26T19:06:54.898Z,101191.66
2023-03-26T19:09:31.538Z,101188.84
2023-03-26T19:12:07.144Z,101195.38
2023-03-26T19:14:37.124Z,101194.16
2023-03-26T19:17:07.064Z,101198.75
2023-03-26T19:19:37.398Z,101210.25
2023-03-26T19:22:06.490Z,101210.59
2023-03-26T19:24:34.137Z,101216.00
2023-03-26T19:27:03.291Z,101223.78
2023-03-26T19:29:34.580Z,101222.22
2023-03-26T19:32:20.141Z,101230.22
2023-03-26T19:34:48.419Z,101232.81
2023-03-26T19:37:25.264Z,101244.31
2023-03-26T19:39:54.269Z,101240.56
2023-03-26T19:42:27.180Z,101250.16
2023-03-26T19:45:17.994Z,101247.34
2023-03-26T19:47:48.560Z,101254.66
2023-03-26T19:50:23.373Z,101264.44
2023-03-26T19:53:15.370Z,101270.19
2023-03-26T19:55:54.685Z,101274.91
2023-03-26T19:58:21.511Z,101279.75
2023-03-26T20:00:49.286Z,101275.38
2023-03-26T20:03:23.043Z,101285.41
2023-03-26T20:05:49.706Z,101280.69
2023-03-26T20:08:27.328Z,101287.66
2023-03-26T20:11:06.972Z,101291.06
2023-03-26T20:13:33.676Z,101297.13
2023-03-26T20:16:07.634Z,101302.97
2023-03-26T20:18:34.965Z,101303.31
2023-03-26T20:21:02.155Z,101311.75
2023-03-26T20:23:29.989Z,101311.31
2023-03-26T20:25:57.114Z,101318.97
2023-03-26T20:28:24.507Z,101316.25
2023-03-26T20:30:55.267Z,101324.25
2023-03-26T20:33:26.707Z,101329.00
2023-03-26T20:35:55.477Z,101329.78
2023-03-26T20:38:36.565Z,101327.75
2023-03-26T20:41:04.240Z,101337.31
2023-03-26T20:43:30.932Z,101334.50
2023-03-26T20:45:58.581Z,101346.09
2023-03-26T20:48:26.630Z,101355.97
2023-03-26T20:50:54.067Z,101359.03
2023-03-26T20:53:22.166Z,101362.41
2023-03-26T20:55:51.073Z,101370.03
2023-03-26T20:58:32.056Z,101376.13
2023-03-26T21:01:01.612Z,101374.44
2023-03-26T21:03:32.019Z,101384.31
2023-03-26T21:06:01.650Z,101381.63
2023-03-26T21:08:34.866Z,101376.91
2023-03-26T21:11:02.833Z,101387.72
2023-03-26T21:13:39.129Z,101396.00
2023-03-26T21:16:06.650Z,101395.69
2023-03-26T21:18:33.909Z,101399.06
2023-03-26T21:21:22.476Z,101400.94
2023-03-26T21:23:59.430Z,101399.59
2023-03-26T21:26:35.673Z,101402.00
2023-03-26T21:29:08.752Z,101411.38
2023-03-26T21:31:37.783Z,101407.75
2023-03-26T21:34:05.517Z,101399.53
2023-03-26T21:36:32.614Z,101412.56
2023-03-26T21:38:59.710Z,101421.09
2023-03-26T21:41:41.379Z,101414.16
2023-03-26T21:44:08.587Z,101428.28
2023-03-26T21:46:35.896Z,101426.72
2023-03-26T21:49:02.862Z,101443.56
2023-03-26T21:51:29.989Z,101449.75
2023-03-26T21:53:56.867Z,101450.09
2023-03-26T21:56:45.574Z,101447.06
2023-03-26T21:59:20.003Z,101452.78
2023-03-26T22:01:58.759Z,101461.34
2023-03-26T22:04:31.064Z,101468.75
2023-03-26T22:07:23.540Z,101476.53
2023-03-26T22:09:50.462Z,101483.19
2023-03-26T22:12:17.764Z,101489.72
2023-03-26T22:14:44.892Z,101487.47
2023-03-26T22:17:11.627Z,101484.78
2023-03-26T22:19:38.494Z,101489.81
2023-03-26T22:22:05.307Z,101492.50
2023-03-26T22:24:32.131Z,101497.34
2023-03-26T22:26:58.717Z,101499.78
2023-03-26T22:29:25.372Z,101497.19
2023-03-26T22:31:53.144Z,101506.53
2023-03-26T22:34:19.936Z,101511.63
2023-03-26T22:36:46.802Z,101512.88
2023-03-26T22:39:13.689Z,101510.47
2023-03-26T22:41:40.503Z,101519.25
2023-03-26T22:44:19.262Z,101523.41
2023-03-26T22:46:49.449Z,101533.41
2023-03-26T22:49:16.717Z,101532.41
2023-03-26T22:51:43.737Z,101539.91
2023-03-26T22:54:10.428Z,101533.59
2023-03-26T22:56:37.249Z,101539.78
2023-03-26T22:59:04.083Z,101544.38
2023-03-26T23:01:31.194Z,101547.59
2023-03-26T23:03:58.070Z,101559.38
2023-03-26T23:06:25.137Z,101561.28
2023-03-26T23:08:51.823Z,101565.13
2023-03-26T23:11:21.966Z,101567.47
2023-03-26T23:13:49.488Z,101575.72
2023-03-26T23:16:18.555Z,101576.63
2023-03-26T23:18:45.189Z,101575.38
2023-03-26T23:21:15.147Z,101579.66
2023-03-26T23:23:42.505Z,101583.13
2023-03-26T23:26:09.221Z,101589.66
2023-03-26T23:28:36.138Z,101588.53
2023-03-26T23:31:06.691Z,101595.53
2023-03-26T23:33:35.829Z,101595.63
2023-03-26T23:36:09.951Z,101599.94
2023-03-26T23:38:43.817Z,101608.03
2023-03-26T23:41:15.470Z,101620.75
2023-03-26T23:43:54.163Z,101619.13
2023-03-26T23:46:25.167Z,101622.16
2023-03-26T23:48:52.263Z,101621.38
2023-03-26T23:51:21.004Z,101636.47
2023-03-26T23:53:49.619Z,101637.56
2023-03-26T23:56:17.129Z,101641.38
2023-03-26T23:58:43.799Z,101640.13
